createdAt,value
2019-05-22T00:01:00.652Z,39.10
2019-05-22T00:04:15.984Z,39.05
2019-05-22T00:07:20.287Z,39.02
2019-05-22T00:10:26.202Z,39.12
2019-05-22T00:13:30.965Z,39.10
2019-05-22T00:16:35.159Z,39.06
2019-05-22T00:19:40.526Z,39.09
2019-05-22T00:22:48.254Z,39.09
2019-05-22T00:25:53.346Z,39.08
2019-05-22T00:28:56.744Z,38.99
2019-05-22T00:32:00.791Z,39.11
2019-05-22T00:35:05.129Z,38.97
2019-05-22T00:38:11.512Z,39.07
2019-05-22T00:41:17.650Z,39.03
2019-05-22T00:44:21.934Z,39.10
2019-05-22T00:47:28.376Z,39.07
2019-05-22T00:50:40.350Z,39.07
2019-05-22T00:54:08.058Z,39.04
2019-05-22T00:57:29.618Z,39.06
2019-05-22T01:00:45.511Z,38.97
2019-05-22T01:03:50.514Z,39.07
2019-05-22T01:06:57.596Z,39.13
2019-05-22T01:10:04.384Z,39.13
2019-05-22T01:13:09.932Z,39.10
2019-05-22T01:16:15.267Z,39.13
2019-05-22T01:19:19.247Z,39.17
2019-05-22T01:22:23.042Z,39.15
2019-05-22T01:25:27.497Z,39.11
2019-05-22T01:28:34.145Z,39.06
2019-05-22T01:31:41.783Z,39.08
2019-05-22T01:34:46.192Z,39.08
2019-05-22T01:37:52.539Z,39.05
2019-05-22T01:40:58.832Z,39.09
2019-05-22T01:44:03.290Z,39.06
2019-05-22T01:47:13.313Z,39.09
2019-05-22T01:50:24.429Z,39.15
2019-05-22T01:53:32.604Z,39.13
2019-05-22T01:56:36.311Z,39.14
2019-05-22T01:59:39.813Z,39.06
2019-05-22T02:02:43.784Z,39.07
2019-05-22T02:05:49.286Z,39.08
2019-05-22T02:09:02.141Z,39.10
2019-05-22T02:12:13.514Z,39.07
2019-05-22T02:15:18.789Z,39.03
2019-05-22T02:18:22.973Z,39.07
2019-05-22T02:21:27.463Z,39.10
2019-05-22T02:24:31.172Z,39.16
2019-05-22T02:27:35.943Z,39.11
2019-05-22T02:30:42.405Z,39.10
2019-05-22T02:34:02.556Z,39.10
2019-05-22T02:37:07.500Z,39.08
2019-05-22T02:40:20.157Z,39.12
2019-05-22T02:43:25.482Z,39.17
2019-05-22T02:46:29.615Z,39.17
2019-05-22T02:49:33.807Z,39.16
2019-05-22T02:52:37.970Z,39.22
2019-05-22T02:55:44.519Z,39.21
2019-05-22T02:58:49.431Z,39.17
2019-05-22T03:01:53.059Z,39.15
2019-05-22T03:04:59.975Z,39.17
2019-05-22T03:08:04.016Z,39.16
2019-05-22T03:11:08.336Z,39.17
2019-05-22T03:14:13.723Z,39.13
2019-05-22T03:17:27.682Z,39.12
2019-05-22T03:20:32.280Z,39.24
2019-05-22T03:23:36.972Z,39.18
2019-05-22T03:26:47.288Z,39.02
2019-05-22T03:29:53.300Z,39.14
2019-05-22T03:32:57.483Z,39.17
2019-05-22T03:36:07.546Z,39.14
2019-05-22T03:39:12.671Z,39.13
2019-05-22T03:42:17.101Z,39.11
2019-05-22T03:45:22.364Z,39.17
2019-05-22T03:48:26.444Z,39.17
2019-05-22T03:51:36.297Z,39.11
2019-05-22T03:54:42.388Z,39.17
2019-05-22T03:57:46.013Z,39.19
2019-05-22T04:00:50.416Z,39.17
2019-05-22T04:03:54.022Z,39.16
2019-05-22T04:06:57.895Z,39.16
2019-05-22T04:10:01.356Z,39.18
2019-05-22T04:13:06.342Z,39.19
2019-05-22T04:16:12.754Z,39.16
2019-05-22T04:19:16.246Z,39.13
2019-05-22T04:22:20.024Z,39.19
2019-05-22T04:25:23.453Z,39.17
2019-05-22T04:28:27.882Z,39.15
2019-05-22T04:31:57.990Z,39.18
2019-05-22T04:35:02.600Z,39.20
2019-05-22T04:38:06.037Z,39.20
2019-05-22T04:41:10.534Z,39.16
2019-05-22T04:44:14.069Z,39.16
2019-05-22T04:47:17.561Z,39.15
2019-05-22T04:50:22.064Z,39.19
2019-05-22T04:53:27.583Z,39.18
2019-05-22T04:56:31.222Z,39.27
2019-05-22T04:59:34.947Z,39.14
2019-05-22T05:02:38.942Z,39.18
2019-05-22T05:05:43.750Z,39.10
2019-05-22T05:08:47.393Z,39.13
2019-05-22T05:11:50.874Z,39.19
2019-05-22T05:14:54.389Z,39.18
2019-05-22T05:17:58.882Z,39.20
2019-05-22T05:21:02.302Z,39.20
2019-05-22T05:24:05.920Z,39.19
2019-05-22T05:27:09.450Z,39.25
2019-05-22T05:30:13.395Z,39.09
2019-05-22T05:33:18.104Z,39.21
2019-05-22T05:36:23.586Z,39.21
2019-05-22T05:40:09.836Z,39.19
2019-05-22T05:43:16.556Z,39.16
2019-05-22T05:46:20.024Z,39.20
2019-05-22T05:49:24.328Z,39.19
2019-05-22T05:52:28.115Z,39.17
2019-05-22T05:55:55.440Z,39.17
2019-05-22T05:59:00.260Z,39.20
2019-05-22T06:02:05.065Z,39.26
2019-05-22T06:05:09.492Z,39.21
2019-05-22T06:08:13.218Z,39.17
2019-05-22T06:11:41.162Z,39.20
2019-05-22T06:14:45.543Z,39.13
2019-05-22T06:18:29.088Z,39.33
2019-05-22T06:21:33.402Z,39.38
2019-05-22T06:25:01.653Z,40.06
2019-05-22T06:28:05.908Z,39.90
2019-05-22T06:31:15.498Z,40.14
2019-05-22T06:34:19.181Z,40.44
2019-05-22T06:37:34.696Z,40.38
2019-05-22T06:40:38.141Z,40.09
2019-05-22T06:44:38.860Z,39.96
2019-05-22T06:47:44.344Z,39.80
2019-05-22T06:50:49.510Z,39.82
2019-05-22T06:53:53.175Z,39.67
2019-05-22T06:56:57.702Z,39.49
2019-05-22T07:00:14.053Z,39.64
2019-05-22T07:03:10.655Z,39.66
2019-05-22T07:06:15.202Z,39.61
2019-05-22T07:09:19.283Z,39.57
2019-05-22T07:12:24.010Z,39.52
2019-05-22T07:15:30.886Z,39.56
2019-05-22T07:18:34.591Z,39.61
2019-05-22T07:21:38.256Z,39.56
2019-05-22T07:24:41.900Z,39.55
2019-05-22T07:27:45.416Z,39.60
2019-05-22T07:30:49.298Z,39.56
2019-05-22T07:33:52.954Z,39.58
2019-05-22T07:36:56.538Z,39.62
2019-05-22T07:40:00.090Z,39.55
2019-05-22T07:43:05.759Z,39.57
2019-05-22T07:46:10.492Z,39.54
2019-05-22T07:49:14.076Z,39.54
2019-05-22T07:52:17.517Z,39.54
2019-05-22T07:55:22.457Z,39.56
2019-05-22T07:58:28.835Z,39.55
2019-05-22T08:01:32.609Z,39.54
2019-05-22T08:04:36.561Z,39.72
2019-05-22T08:07:40.692Z,39.61
2019-05-22T08:10:44.768Z,39.58
2019-05-22T08:13:49.190Z,39.56
2019-05-22T08:16:58.438Z,39.57
2019-05-22T08:20:02.073Z,39.53
2019-05-22T08:23:05.894Z,39.49
2019-05-22T08:26:10.700Z,39.43
2019-05-22T08:29:14.640Z,39.41
2019-05-22T08:32:18.502Z,39.56
2019-05-22T08:35:22.230Z,39.61
2019-05-22T08:38:33.578Z,39.60
2019-05-22T08:41:38.859Z,39.56
2019-05-22T08:44:42.430Z,39.58
2019-05-22T08:47:46.033Z,39.56
2019-05-22T08:50:49.869Z,39.56
2019-05-22T08:53:53.773Z,39.59
2019-05-22T08:56:57.367Z,39.56
2019-05-22T09:00:12.389Z,39.54
2019-05-22T09:03:16.396Z,39.52
2019-05-22T09:06:20.561Z,39.46
2019-05-22T09:09:26.620Z,39.47
2019-05-22T09:12:36.937Z,39.49
2019-05-22T09:19:14.090Z,39.48
2019-05-22T09:22:18.708Z,39.48
2019-05-22T09:25:22.227Z,39.49
2019-05-22T09:28:25.716Z,39.40
2019-05-22T09:31:29.248Z,39.48
2019-05-22T09:34:32.716Z,39.40
2019-05-22T09:37:36.231Z,39.44
2019-05-22T09:40:39.738Z,39.41
2019-05-22T09:43:44.235Z,39.41
2019-05-22T09:46:49.235Z,39.37
2019-05-22T09:49:52.694Z,39.32
2019-05-22T09:52:58.280Z,39.26
2019-05-22T09:56:02.411Z,39.25
2019-05-22T09:59:05.862Z,39.54
2019-05-22T10:02:09.885Z,39.64
2019-05-22T10:05:13.878Z,39.62
2019-05-22T10:08:18.386Z,39.67
2019-05-22T10:11:23.331Z,39.63
2019-05-22T10:14:27.842Z,39.58
2019-05-22T10:17:33.019Z,39.63
2019-05-22T10:20:36.765Z,39.57
2019-05-22T10:23:40.978Z,39.63
2019-05-22T10:26:50.268Z,39.56
2019-05-22T10:29:54.403Z,39.51
2019-05-22T10:33:00.279Z,39.56
2019-05-22T10:36:04.233Z,39.52
2019-05-22T10:39:08.088Z,39.47
2019-05-22T10:42:11.987Z,39.46
2019-05-22T10:45:15.563Z,39.42
2019-05-22T10:48:19.085Z,39.40
2019-05-22T10:51:23.100Z,39.42
2019-05-22T10:54:27.491Z,39.35
2019-05-22T10:57:31.346Z,39.38
2019-05-22T11:00:35.033Z,39.46
2019-05-22T11:03:40.463Z,39.38
2019-05-22T11:06:44.371Z,39.61
2019-05-22T11:09:49.031Z,39.59
2019-05-22T11:12:52.688Z,39.50
2019-05-22T11:15:58.227Z,39.46
2019-05-22T11:19:01.901Z,39.38
2019-05-22T11:22:07.385Z,39.29
2019-05-22T11:25:12.966Z,39.29
2019-05-22T11:28:17.492Z,39.28
2019-05-22T11:31:21.007Z,39.27
2019-05-22T11:34:25.510Z,39.38
2019-05-22T11:37:30.499Z,39.48
2019-05-22T11:40:33.945Z,39.49
2019-05-22T11:43:37.875Z,39.61
2019-05-22T11:46:41.368Z,39.64
2019-05-22T11:49:44.888Z,39.61
2019-05-22T11:52:50.602Z,39.62
2019-05-22T11:55:54.121Z,39.61
2019-05-22T11:58:57.611Z,39.59
2019-05-22T12:02:01.100Z,39.60
2019-05-22T12:05:05.050Z,39.62
2019-05-22T12:08:08.763Z,39.63
2019-05-22T12:11:14.208Z,39.62
2019-05-22T12:14:18.551Z,39.64
2019-05-22T12:17:37.523Z,39.69
2019-05-22T12:20:29.286Z,39.67
2019-05-22T12:23:32.950Z,39.62
2019-05-22T12:26:37.440Z,39.67
2019-05-22T12:29:41.064Z,39.68
2019-05-22T12:32:44.644Z,39.68
2019-05-22T12:35:48.492Z,39.68
2019-05-22T12:38:51.988Z,39.66
2019-05-22T12:41:57.126Z,39.69
2019-05-22T12:45:00.759Z,39.69
2019-05-22T12:48:06.433Z,39.67
2019-05-22T12:51:10.580Z,39.68
2019-05-22T12:54:14.213Z,39.75
2019-05-22T12:57:17.659Z,39.76
2019-05-22T13:00:22.388Z,39.77
2019-05-22T13:03:25.797Z,39.73
2019-05-22T13:06:30.639Z,39.75
2019-05-22T13:09:35.333Z,39.74
2019-05-22T13:12:39.870Z,39.80
2019-05-22T13:15:43.862Z,39.80
2019-05-22T13:18:47.292Z,39.80
2019-05-22T13:21:52.357Z,39.88
2019-05-22T13:24:56.947Z,39.88
2019-05-22T13:28:02.507Z,39.96
2019-05-22T13:31:07.474Z,39.95
2019-05-22T13:34:11.988Z,39.95
2019-05-22T13:37:15.458Z,39.96
2019-05-22T13:40:27.481Z,39.95
2019-05-22T13:43:26.727Z,39.96
2019-05-22T13:46:30.349Z,39.94
2019-05-22T13:49:35.395Z,39.95
2019-05-22T13:52:39.610Z,39.93
2019-05-22T13:55:43.227Z,40.02
2019-05-22T13:58:46.829Z,40.01
2019-05-22T14:01:50.752Z,39.93
2019-05-22T14:04:54.731Z,39.83
2019-05-22T14:07:58.249Z,39.75
2019-05-22T14:11:02.856Z,39.72
2019-05-22T14:14:06.649Z,39.73
2019-05-22T14:17:10.213Z,39.63
2019-05-22T14:20:14.093Z,39.63
2019-05-22T14:23:18.004Z,39.56
2019-05-22T14:26:21.514Z,39.52
2019-05-22T14:29:25.068Z,39.55
2019-05-22T14:32:30.352Z,39.76
2019-05-22T14:35:47.553Z,39.83
2019-05-22T14:38:41.561Z,39.89
2019-05-22T14:41:46.221Z,39.87
2019-05-22T14:44:49.764Z,39.83
2019-05-22T14:47:55.360Z,39.86
2019-05-22T14:51:00.081Z,39.86
2019-05-22T14:54:05.143Z,39.85
2019-05-22T14:57:09.791Z,39.88
2019-05-22T15:00:13.849Z,39.82
2019-05-22T15:03:17.576Z,39.80
2019-05-22T15:06:21.269Z,39.82
2019-05-22T15:09:24.853Z,39.82
2019-05-22T15:12:28.992Z,39.82
2019-05-22T15:15:32.466Z,39.80
2019-05-22T15:18:36.110Z,39.80
2019-05-22T15:21:40.707Z,39.82
2019-05-22T15:24:44.209Z,39.80
2019-05-22T15:27:47.721Z,39.77
2019-05-22T15:30:52.353Z,39.79
2019-05-22T15:33:56.082Z,39.75
2019-05-22T15:37:00.386Z,39.73
2019-05-22T15:40:05.677Z,39.72
2019-05-22T15:43:09.118Z,39.71
2019-05-22T15:46:13.333Z,39.69
2019-05-22T15:49:17.521Z,39.63
2019-05-22T15:52:21.762Z,39.69
2019-05-22T15:55:26.008Z,39.67
2019-05-22T15:58:32.684Z,39.66
2019-05-22T16:01:36.885Z,39.65
2019-05-22T16:04:41.037Z,39.64
2019-05-22T16:07:48.991Z,39.67
2019-05-22T16:10:52.814Z,39.64
2019-05-22T16:13:56.889Z,39.61
2019-05-22T16:17:01.221Z,39.56
2019-05-22T16:20:09.495Z,39.55
2019-05-22T16:23:13.081Z,39.52
2019-05-22T16:26:17.673Z,39.46
2019-05-22T16:29:21.920Z,39.50
2019-05-22T16:32:27.919Z,39.45
2019-05-22T16:35:31.546Z,39.46
2019-05-22T16:38:36.503Z,39.40
2019-05-22T16:41:40.027Z,39.45
2019-05-22T16:44:44.796Z,39.47
2019-05-22T16:47:48.236Z,39.43
2019-05-22T16:50:51.732Z,39.41
2019-05-22T16:53:57.054Z,39.38
2019-05-22T16:57:01.059Z,39.42
2019-05-22T17:00:05.664Z,39.70
2019-05-22T17:03:10.982Z,39.91
2019-05-22T17:06:14.763Z,39.93
2019-05-22T17:09:21.849Z,40.01
2019-05-22T17:12:25.616Z,39.94
2019-05-22T17:15:29.438Z,39.95
2019-05-22T17:18:46.492Z,39.84
2019-05-22T17:21:43.945Z,39.80
2019-05-22T17:24:47.463Z,39.76
2019-05-22T17:27:50.961Z,39.88
2019-05-22T17:30:54.446Z,39.81
2019-05-22T17:33:58.631Z,39.80
2019-05-22T17:37:14.530Z,39.81
2019-05-22T17:40:20.381Z,39.81
2019-05-22T17:43:25.507Z,39.85
2019-05-22T17:46:29.085Z,39.89
2019-05-22T17:49:33.091Z,39.92
2019-05-22T17:52:37.684Z,39.90
2019-05-22T17:55:41.420Z,39.89
2019-05-22T17:58:45.043Z,39.86
2019-05-22T18:01:55.220Z,39.88
2019-05-22T18:05:01.351Z,39.86
2019-05-22T18:08:07.261Z,40.00
2019-05-22T18:11:10.783Z,39.89
2019-05-22T18:14:15.188Z,39.92
2019-05-22T18:17:19.378Z,39.86
2019-05-22T18:20:23.521Z,39.94
2019-05-22T18:23:27.468Z,39.88
2019-05-22T18:26:32.678Z,39.91
2019-05-22T18:29:36.355Z,39.90
2019-05-22T18:32:41.760Z,39.96
2019-05-22T18:35:45.593Z,40.18
2019-05-22T18:38:49.145Z,40.18
2019-05-22T18:41:53.687Z,40.21
2019-05-22T18:44:57.180Z,40.19
2019-05-22T18:48:00.688Z,40.17
2019-05-22T18:51:06.115Z,40.16
2019-05-22T18:54:09.566Z,40.18
2019-05-22T18:57:14.387Z,40.24
2019-05-22T19:00:21.571Z,40.17
2019-05-22T19:03:25.429Z,40.19
2019-05-22T19:06:30.574Z,40.17
2019-05-22T19:09:34.208Z,40.20
2019-05-22T19:12:38.907Z,40.22
2019-05-22T19:15:42.908Z,40.28
2019-05-22T19:18:46.815Z,40.33
2019-05-22T19:21:51.291Z,40.27
2019-05-22T19:24:55.805Z,40.12
2019-05-22T19:27:59.330Z,40.13
2019-05-22T19:31:03.848Z,40.09
2019-05-22T19:34:07.847Z,40.09
2019-05-22T19:37:12.281Z,40.11
2019-05-22T19:40:16.095Z,40.07
2019-05-22T19:43:19.678Z,40.14
2019-05-22T19:46:24.679Z,40.06
2019-05-22T19:49:29.345Z,40.05
2019-05-22T19:52:41.837Z,40.05
2019-05-22T19:55:40.839Z,40.05
2019-05-22T19:58:45.851Z,40.03
2019-05-22T20:01:49.898Z,40.03
2019-05-22T20:04:53.597Z,39.96
2019-05-22T20:07:57.006Z,39.97
2019-05-22T20:11:00.764Z,40.02
2019-05-22T20:14:04.981Z,39.97
2019-05-22T20:17:08.843Z,39.95
2019-05-22T20:20:12.808Z,39.89
2019-05-22T20:23:17.352Z,39.83
2019-05-22T20:26:21.185Z,39.83
2019-05-22T20:29:25.740Z,39.82
2019-05-22T20:32:29.626Z,39.78
2019-05-22T20:35:34.175Z,39.77
2019-05-22T20:38:40.124Z,39.78
2019-05-22T20:41:44.667Z,39.75
2019-05-22T20:44:49.429Z,39.72
2019-05-22T20:48:09.666Z,39.72
2019-05-22T20:51:16.699Z,39.73
2019-05-22T20:54:20.606Z,39.73
2019-05-22T20:57:25.705Z,39.74
2019-05-22T21:00:31.968Z,39.75
2019-05-22T21:03:36.858Z,39.75
2019-05-22T21:06:44.240Z,39.70
2019-05-22T21:09:48.159Z,39.74
2019-05-22T21:12:53.449Z,39.70
2019-05-22T21:15:56.891Z,39.73
2019-05-22T21:19:00.328Z,39.71
2019-05-22T21:22:05.398Z,39.68
2019-05-22T21:25:11.995Z,39.71
2019-05-22T21:28:21.451Z,39.70
2019-05-22T21:31:26.931Z,39.72
2019-05-22T21:34:30.433Z,39.73
2019-05-22T21:37:33.931Z,39.73
2019-05-22T21:40:38.505Z,39.71
2019-05-22T21:43:41.977Z,39.67
2019-05-22T21:46:45.470Z,39.72
2019-05-22T21:49:50.211Z,39.70
2019-05-22T21:52:53.785Z,39.74
2019-05-22T21:56:04.696Z,39.71
2019-05-22T21:59:04.158Z,39.71
2019-05-22T22:02:13.473Z,39.73
2019-05-22T22:05:19.257Z,39.71
2019-05-22T22:08:22.921Z,39.72
2019-05-22T22:11:27.399Z,39.75
2019-05-22T22:14:31.367Z,39.74
2019-05-22T22:17:35.998Z,39.75
2019-05-22T22:20:39.734Z,39.75
2019-05-22T22:23:44.752Z,39.69
2019-05-22T22:26:48.376Z,39.70
2019-05-22T22:29:52.933Z,39.70
2019-05-22T22:32:56.763Z,39.73
2019-05-22T22:36:00.586Z,39.74
2019-05-22T22:39:10.191Z,39.72
2019-05-22T22:42:17.952Z,39.71
2019-05-22T22:45:29.595Z,39.70
2019-05-22T22:48:35.478Z,39.73
2019-05-22T22:51:38.918Z,39.71
2019-05-22T22:54:44.027Z,39.75
2019-05-22T22:57:48.348Z,39.72
2019-05-22T23:00:53.450Z,39.77
2019-05-22T23:03:59.180Z,39.74
2019-05-22T23:07:05.702Z,39.72
2019-05-22T23:10:09.456Z,39.71
2019-05-22T23:13:14.327Z,39.74
2019-05-22T23:16:20.914Z,39.73
2019-05-22T23:19:33.649Z,39.75
2019-05-22T23:22:36.029Z,39.77
2019-05-22T23:25:42.219Z,39.71
2019-05-22T23:28:47.197Z,39.73
2019-05-22T23:31:51.022Z,39.73
2019-05-22T23:34:55.382Z,39.72
2019-05-22T23:37:59.141Z,39.73
2019-05-22T23:41:03.254Z,39.71
2019-05-22T23:44:07.607Z,39.74
2019-05-22T23:47:12.867Z,39.72
2019-05-22T23:50:17.245Z,39.72
2019-05-22T23:53:23.518Z,39.74
2019-05-22T23:56:27.656Z,39.78
2019-05-22T23:59:33.888Z,39.78
